Capitol Logistics 2298


KMIA
Miami International Airport
Miami, Florida, US
KSDF
Louisville International Airport-Standiford Field
Louisville, Kentucky, US

Activity Log

Date Flight Route Aircraft Duration
12/01/2019 CPX2298 WINCO2 WINCO CHRRI Q118 KPASA Q118 ATL VXV GREDY MAUDD6 B763 2h 12m

Route Details

Aircraft Information
Primary: Boeing 747-400BCF
Backup: Boeing 767-300BDSF
Date Restrictions
Between:Nov 16, 2019
Dec 31, 2019
Route Data
Distance: 794nm
Sched. Duration: 2h 16m
Avg. Duration: 2h 12m (-4m)
Times Flown: 1
Recm'd Route: WINCO2 WINCO CHRRI Q118 KPASA Q118 ATL VXV GREDY MAUDD6
Planned Altitude: 34,000ft
Origin Wx: KMIA 210753Z 28005KT 10SM FEW010 23/20 A3002 RMK AO2 SLP166 T02280200
Dest. Wx: KSDF 210756Z 36006KT 10SM CLR M05/M12 A3063 RMK AO2 SLP379 T10501117
Notes: SEASONAL FLIGHT | UPS SURGE OPS CONTRACT

Financial History
Total Freight: 112,816lbs
Average Load: 112,816lbs/flt
Fuel Used: 25,586lbs
Avg. Fuel Used: 25,586lbs/flt
Fuel Expense: $31,471
Avg. Fuel Expense: $31,471
Avg. Fuel Cost: $1.23/lbs
Total Gross Income: $213,222
Pilot Pay: $229
Total Expenses: $23,080
Total Revenue: $158,184
Average Revenue: $213,222.23